Terminal Aerodrome Forecast
Issued by NWS Amarillo, TX

Home | Current Version | Previous Version | Text Only | Print | Product List | Glossary On
Versions: 1 2 3 4 5 6 7 8 9 10 11 12
000
FTUS44 KAMA 221120
TAFDHT
TAF
KDHT 221120Z 2212/2312 01015G23KT P6SM OVC007
     FM221700 02015G23KT P6SM OVC020
     FM222100 05010KT P6SM BKN250=

USA.gov is the U.S. government's official web portal to all federal, state and local government web resources and services.